Terminal Aerodrome Forecast
Issued by NWS

Current Version | Previous Version | Text Only | Print | Product List | Glossary On
Versions: 1 2 3 4 5 6 7 8 9 10 11 12 13 14 15 16 17 18 19
000
FTUS41 KRNK 240520
TAFBCB
TAF
KBCB 240520Z 2406/2506 22004KT P6SM SKC
      TEMPO 2406/2408 BKN030
     FM240800 25004KT P6SM BKN090
      TEMPO 2408/2412 4SM BR
     FM241800 20008KT P6SM BKN060
     FM242200 26008KT P6SM SCT250=

USA.gov is the U.S. government's official web portal to all federal, state and local government web resources and services.